Time;durP1;ratioP1;P1;durP2;ratioP2;P2;SDS_P1;SDS_P2;PMS_P1;PMS_P2;Temp;Humidity;BMP_temperature;BMP_pressure;BME280_temperature;BME280_humidity;BME280_pressure;Samples;Min_cycle;Max_cycle;Signal;HPM_P1;HPM_P2
2021/01/21 00:02:17;;;;;;;105.72;42.55;;;-7.00;81.80;;;;;;5077117;28;20064;-87
2021/01/21 00:04:42;;;;;;;130.10;50.38;;;-6.90;81.30;;;;;;5079106;28;20062;-87
2021/01/21 00:07:08;;;;;;;127.72;51.15;;;-6.90;81.40;;;;;;5088154;28;20036;-87
2021/01/21 00:09:34;;;;;;;127.15;51.30;;;-6.80;81.50;;;;;;5076976;28;20028;-87
2021/01/21 00:12:00;;;;;;;95.72;41.75;;;-6.80;82.00;;;;;;5076593;28;20059;-87
2021/01/21 00:14:26;;;;;;;108.15;45.10;;;-6.80;81.50;;;;;;5076362;28;20379;-86
2021/01/21 00:16:52;;;;;;;112.78;42.08;;;-6.90;81.70;;;;;;5077256;28;20489;-87
2021/01/21 00:19:18;;;;;;;112.85;43.10;;;-6.80;81.60;;;;;;5077439;28;20028;-87
2021/01/21 00:21:44;;;;;;;127.43;49.88;;;-6.80;81.70;;;;;;5077622;28;20028;-86
2021/01/21 00:24:09;;;;;;;117.05;46.72;;;-6.80;82.10;;;;;;5076303;28;20020;-87
2021/01/21 00:26:35;;;;;;;118.80;48.17;;;-6.80;81.80;;;;;;5081324;28;20131;-87
2021/01/21 00:29:01;;;;;;;132.30;56.88;;;-6.70;81.80;;;;;;5115066;28;20027;-86
2021/01/21 00:31:27;;;;;;;131.05;55.05;;;-6.70;82.40;;;;;;5101949;28;20072;-87
2021/01/21 00:33:53;;;;;;;129.90;57.35;;;-6.60;82.30;;;;;;5099931;28;20027;-87
2021/01/21 00:36:18;;;;;;;118.35;51.22;;;-6.70;82.40;;;;;;5099385;28;20088;-87
2021/01/21 00:38:44;;;;;;;128.00;56.75;;;-6.60;82.30;;;;;;5099594;28;20023;-86
2021/01/21 00:41:10;;;;;;;109.75;49.25;;;-6.60;82.40;;;;;;5099592;28;20031;-87
2021/01/21 00:43:36;;;;;;;92.32;42.13;;;-6.50;81.90;;;;;;5117746;28;20048;-87
2021/01/21 00:46:01;;;;;;;89.55;42.10;;;-6.50;81.10;;;;;;5098956;28;20746;-87
2021/01/21 00:48:27;;;;;;;91.90;41.72;;;-6.40;81.00;;;;;;5099219;28;20035;-87
2021/01/21 00:50:53;;;;;;;82.15;38.13;;;-6.40;80.80;;;;;;5099110;28;20030;-87
2021/01/21 00:53:19;;;;;;;91.75;43.55;;;-6.40;80.70;;;;;;5099240;28;20023;-87
2021/01/21 00:55:45;;;;;;;97.10;43.55;;;-6.40;81.30;;;;;;5099086;28;20403;-86
2021/01/21 00:58:11;;;;;;;87.18;41.33;;;-6.40;81.70;;;;;;5099124;28;20437;-87
2021/01/21 01:00:37;;;;;;;85.30;39.33;;;-6.40;81.70;;;;;;5098650;28;20024;-87
2021/01/21 01:03:09;;;;;;;79.53;36.90;;;-6.40;81.70;;;;;;5098881;28;20023;-87
2021/01/21 01:05:35;;;;;;;78.97;34.17;;;-6.40;82.20;;;;;;5117182;28;20031;-87
2021/01/21 01:08:02;;;;;;;86.32;35.25;;;-6.40;81.80;;;;;;5098828;28;20035;-87
2021/01/21 01:10:28;;;;;;;79.78;32.80;;;-6.40;81.70;;;;;;5098863;28;20038;-87
2021/01/21 01:12:53;;;;;;;76.22;31.42;;;-6.30;81.60;;;;;;5098936;28;20024;-87
2021/01/21 01:15:26;;;;;;;71.43;30.70;;;-6.30;81.70;;;;;;5099144;28;20028;-87
2021/01/21 01:17:51;;;;;;;85.50;37.25;;;-6.30;81.60;;;;;;5099279;28;20043;-87
2021/01/21 01:20:17;;;;;;;77.75;34.72;;;-6.30;82.00;;;;;;5117398;28;20370;-87
2021/01/21 01:22:49;;;;;;;85.18;36.85;;;-6.30;81.90;;;;;;5099072;28;20060;-87
2021/01/21 01:25:14;;;;;;;85.25;37.25;;;-6.30;81.50;;;;;;5117272;28;20466;-87
2021/01/21 01:27:43;;;;;;;85.57;36.58;;;-6.20;81.70;;;;;;5083496;28;20067;-87
2021/01/21 01:30:14;;;;;;;91.32;36.83;;;-6.20;81.50;;;;;;5075139;28;20024;-87
2021/01/21 01:32:41;;;;;;;87.18;38.05;;;-6.20;81.50;;;;;;5075396;28;20044;-87
2021/01/21 01:35:08;;;;;;;87.28;37.00;;;-6.20;81.50;;;;;;5075015;28;20390;-87
2021/01/21 01:37:33;;;;;;;73.75;31.33;;;-6.10;81.10;;;;;;5075329;28;20066;-87
2021/01/21 01:39:59;;;;;;;74.05;34.30;;;-6.10;80.90;;;;;;5075134;28;20417;-87
2021/01/21 01:42:26;;;;;;;71.60;32.78;;;-6.10;80.40;;;;;;5075158;28;20063;-87
2021/01/21 01:44:51;;;;;;;80.25;35.70;;;-6.10;80.80;;;;;;5075025;28;20036;-87
2021/01/21 01:47:18;;;;;;;73.75;32.53;;;-6.10;80.80;;;;;;5074782;28;20390;-87
2021/01/21 01:49:45;;;;;;;72.75;34.28;;;-6.20;81.10;;;;;;5074949;28;20058;-88
2021/01/21 01:52:11;;;;;;;72.28;32.83;;;-6.20;80.00;;;;;;5075108;28;20030;-87
2021/01/21 01:54:40;;;;;;;57.45;27.30;;;-6.20;80.80;;;;;;5075106;28;20412;-88
2021/01/21 01:57:07;;;;;;;56.03;26.25;;;-6.10;80.80;;;;;;5074591;28;20027;-88
2021/01/21 01:59:37;;;;;;;54.17;23.42;;;-6.00;80.30;;;;;;5074780;28;20032;-88
2021/01/21 02:02:03;;;;;;;48.35;22.65;;;-6.00;79.70;;;;;;5074770;28;20058;-88
2021/01/21 02:04:29;;;;;;;61.22;26.80;;;-6.00;79.40;;;;;;5074669;28;20028;-88
2021/01/21 02:06:55;;;;;;;52.58;24.08;;;-6.00;79.30;;;;;;5074424;28;20032;-88
2021/01/21 02:09:22;;;;;;;66.47;29.65;;;-6.00;79.20;;;;;;5074590;28;20470;-88
2021/01/21 02:12:06;;;;;;;57.33;28.02;;;-6.10;79.10;;;;;;5074047;28;20025;-88
2021/01/21 02:15:04;;;;;;;72.78;32.17;;;-6.20;79.20;;;;;;5076248;28;20024;-87
2021/01/21 02:17:45;;;;;;;63.80;28.15;;;-6.20;79.40;;;;;;5083098;28;20032;-87
2021/01/21 02:20:29;;;;;;;63.60;27.15;;;-6.10;79.30;;;;;;5075303;28;20036;-88
2021/01/21 02:23:31;;;;;;;86.88;36.53;;;-6.20;79.50;;;;;;5073979;28;20031;-88
2021/01/21 02:26:05;;;;;;;69.13;30.35;;;-6.10;78.90;;;;;;5073459;28;20497;-88
2021/01/21 02:29:02;;;;;;;77.13;34.97;;;-6.10;78.90;;;;;;5108283;28;20127;-88
2021/01/21 02:31:56;;;;;;;70.55;34.38;;;-6.10;78.50;;;;;;5097422;28;20072;-88
2021/01/21 02:34:50;;;;;;;69.93;31.75;;;-6.10;78.50;;;;;;5097249;28;20372;-88
2021/01/21 02:37:28;;;;;;;67.20;29.92;;;-6.20;79.10;;;;;;5097159;28;20032;-88
2021/01/21 02:39:59;;;;;;;53.28;25.35;;;-6.20;79.30;;;;;;5097235;28;20023;-87
2021/01/21 02:42:26;;;;;;;60.58;27.98;;;-6.20;79.20;;;;;;5097242;28;20023;-88
2021/01/21 02:44:52;;;;;;;70.65;29.85;;;-6.10;79.40;;;;;;5097508;28;20423;-88
2021/01/21 02:47:21;;;;;;;65.97;30.50;;;-6.10;79.50;;;;;;5096858;28;20024;-87
2021/01/21 02:49:49;;;;;;;68.18;31.10;;;-6.10;79.30;;;;;;5115007;28;20047;-88
2021/01/21 02:52:33;;;;;;;63.10;28.13;;;-6.20;79.50;;;;;;5096859;28;20034;-88
2021/01/21 02:55:23;;;;;;;71.85;34.75;;;-6.10;79.50;;;;;;5096821;28;20073;-88
2021/01/21 02:58:24;;;;;;;66.18;33.95;;;-6.20;80.00;;;;;;5096911;28;20114;-87
2021/01/21 03:00:51;;;;;;;;;;;-6.10;80.10;;;;;;5092391;28;20491;-87
2021/01/21 03:03:21;;;;;;;67.78;31.50;;;-6.10;80.50;;;;;;5096877;28;19998;-87
2021/01/21 03:05:53;;;;;;;70.20;33.00;;;-6.00;80.10;;;;;;5097038;28;20024;-87
2021/01/21 03:08:19;;;;;;;67.45;33.20;;;-6.00;79.90;;;;;;5096656;28;20122;-88
2021/01/21 03:10:45;;;;;;;63.78;30.00;;;-6.00;79.80;;;;;;5096977;28;20526;-88
2021/01/21 03:13:11;;;;;;;72.93;31.30;;;-5.90;79.80;;;;;;5097126;28;20023;-88
2021/01/21 03:15:36;;;;;;;71.72;33.88;;;-5.90;79.60;;;;;;5121635;27;20484;-88
2021/01/21 03:18:04;;;;;;;73.07;33.38;;;-5.90;79.60;;;;;;5117567;28;20068;-88
2021/01/21 03:20:29;;;;;;;67.50;33.75;;;-5.90;79.70;;;;;;5117311;27;20055;-87
2021/01/21 03:22:55;;;;;;;69.53;31.08;;;-5.90;79.70;;;;;;5135917;27;20385;-88
2021/01/21 03:25:21;;;;;;;70.60;30.98;;;-5.90;80.20;;;;;;5117364;28;20468;-87
2021/01/21 03:27:47;;;;;;;56.92;26.02;;;-5.90;79.90;;;;;;5135287;28;20047;-87
2021/01/21 03:30:13;;;;;;;73.75;32.60;;;-5.80;80.00;;;;;;5114658;28;20031;-87
2021/01/21 03:32:38;;;;;;;63.17;29.48;;;-5.70;79.90;;;;;;5096726;28;20072;-86
2021/01/21 03:35:05;;;;;;;66.15;28.63;;;-5.70;79.70;;;;;;5097076;28;20114;-88
2021/01/21 03:37:31;;;;;;;63.13;29.48;;;-5.70;79.70;;;;;;5096899;28;20028;-86
2021/01/21 03:39:57;;;;;;;58.17;27.00;;;-5.70;79.90;;;;;;5097042;28;20024;-86
2021/01/21 03:42:23;;;;;;;63.55;28.25;;;-5.70;80.30;;;;;;5096861;28;20381;-86
2021/01/21 03:44:48;;;;;;;62.40;28.48;;;-5.70;80.20;;;;;;5097236;28;20024;-87
2021/01/21 03:47:14;;;;;;;58.58;26.55;;;-5.60;80.20;;;;;;5097256;28;20030;-87
2021/01/21 03:49:40;;;;;;;58.38;26.73;;;-5.60;80.60;;;;;;5097088;28;20015;-86
2021/01/21 03:52:06;;;;;;;63.00;29.13;;;-5.60;80.40;;;;;;5096520;28;20122;-87
2021/01/21 03:54:31;;;;;;;71.63;32.33;;;-5.50;81.10;;;;;;5096986;28;20028;-87
2021/01/21 03:56:57;;;;;;;69.95;32.72;;;-5.50;81.90;;;;;;5096964;28;20031;-87
2021/01/21 03:59:23;;;;;;;64.13;31.45;;;-5.50;82.20;;;;;;5115160;28;20024;-87
2021/01/21 04:01:49;;;;;;;67.75;31.00;;;-5.50;82.10;;;;;;5106385;28;20049;-85
2021/01/21 04:04:15;;;;;;;67.85;33.17;;;-5.40;82.20;;;;;;5103064;28;20028;-87
2021/01/21 04:06:40;;;;;;;70.95;34.72;;;-5.40;82.20;;;;;;5096407;28;20032;-87
2021/01/21 04:09:06;;;;;;;62.40;30.33;;;-5.30;82.40;;;;;;5096577;28;20077;-87
2021/01/21 04:11:32;;;;;;;69.07;32.28;;;-5.30;82.10;;;;;;5096423;28;20086;-87
2021/01/21 04:13:58;;;;;;;78.95;35.25;;;-5.20;81.60;;;;;;5095844;28;20487;-86
2021/01/21 04:16:24;;;;;;;58.75;26.48;;;-5.20;82.10;;;;;;5095777;28;20030;-87
2021/01/21 04:18:49;;;;;;;63.70;29.88;;;-5.20;81.70;;;;;;5095681;28;20024;-87
2021/01/21 04:21:15;;;;;;;67.18;30.63;;;-5.10;81.80;;;;;;5095965;28;20110;-87
2021/01/21 04:23:41;;;;;;;71.05;31.77;;;-5.10;81.80;;;;;;5095417;28;20031;-86
2021/01/21 04:26:07;;;;;;;70.38;30.95;;;-5.10;82.40;;;;;;5091671;28;20077;-88
2021/01/21 04:28:33;;;;;;;78.50;33.55;;;-5.10;82.60;;;;;;5095319;28;20048;-86
2021/01/21 04:30:59;;;;;;;63.83;28.92;;;-5.10;82.40;;;;;;5095415;28;20023;-86
2021/01/21 04:33:24;;;;;;;71.60;32.92;;;-5.10;81.90;;;;;;5095046;28;20073;-86
2021/01/21 04:35:51;;;;;;;60.65;28.95;;;-5.10;82.00;;;;;;5098587;28;20019;-87
2021/01/21 04:38:17;;;;;;;68.07;29.40;;;-5.00;81.90;;;;;;5099474;28;20024;-86
2021/01/21 04:40:43;;;;;;;70.72;29.63;;;-4.90;81.40;;;;;;5099463;28;20090;-86
2021/01/21 04:43:09;;;;;;;78.63;33.92;;;-4.90;81.40;;;;;;5098687;28;20020;-86
2021/01/21 04:50:48;;;;;;;77.90;34.65;;;-4.90;81.90;;;;;;5183088;22;20707;-90
2021/01/21 04:53:16;;;;;;;69.50;33.83;;;-5.00;82.70;;;;;;5015332;28;20033;-87
2021/01/21 04:55:45;;;;;;;78.53;35.95;;;-5.00;83.00;;;;;;5016503;28;20030;-81
2021/01/21 04:58:11;;;;;;;73.13;34.00;;;-5.00;82.90;;;;;;5014009;28;20049;-81
2021/01/21 05:00:38;;;;;;;72.78;30.42;;;-5.00;83.00;;;;;;5030542;28;20549;-81
2021/01/21 05:03:04;;;;;;;76.95;32.72;;;-5.00;82.70;;;;;;5029078;28;20033;-81
2021/01/21 05:05:30;;;;;;;67.72;31.15;;;-4.90;83.10;;;;;;5034831;28;20443;-81
2021/01/21 05:07:57;;;;;;;69.78;30.35;;;-4.90;82.70;;;;;;5034680;28;20056;-81
2021/01/21 05:10:23;;;;;;;69.55;30.38;;;-4.90;82.50;;;;;;5034511;28;20036;-80
2021/01/21 05:12:49;;;;;;;68.38;29.40;;;-4.90;82.80;;;;;;5025523;28;20029;-81
2021/01/21 05:15:15;;;;;;;73.38;30.58;;;-4.80;82.60;;;;;;5016134;28;20506;-81
2021/01/21 05:17:42;;;;;;;74.78;35.88;;;-4.90;83.30;;;;;;5014625;28;20190;-81
2021/01/21 05:20:08;;;;;;;65.65;29.92;;;-4.90;84.50;;;;;;5016114;28;20026;-81
2021/01/21 05:22:38;;;;;;;77.22;32.25;;;-4.90;84.20;;;;;;5015974;28;20021;-81
2021/01/21 05:25:04;;;;;;;69.95;28.98;;;-4.90;84.70;;;;;;5014739;28;20033;-81
2021/01/21 05:27:30;;;;;;;57.75;27.02;;;-4.90;84.20;;;;;;5014366;28;20041;-81
2021/01/21 05:30:00;;;;;;;76.03;32.85;;;-4.80;83.90;;;;;;5014657;28;20122;-81
2021/01/21 05:32:26;;;;;;;74.03;35.37;;;-4.80;84.70;;;;;;5014954;28;20033;-81
2021/01/21 05:34:52;;;;;;;71.88;32.63;;;-4.80;85.20;;;;;;5014254;28;20029;-81
2021/01/21 05:37:18;;;;;;;67.85;33.13;;;-4.80;85.00;;;;;;5014540;28;20030;-80
2021/01/21 05:39:45;;;;;;;63.70;27.85;;;-4.80;85.80;;;;;;5014394;28;20040;-83
2021/01/21 05:42:15;;;;;;;74.53;33.70;;;-4.80;84.60;;;;;;5014032;28;20084;-83
2021/01/21 05:44:41;;;;;;;77.13;33.47;;;-4.70;85.30;;;;;;5015750;28;20582;-83
2021/01/21 05:47:10;;;;;;;69.68;29.92;;;-4.80;85.80;;;;;;5014072;28;20366;-82
2021/01/21 05:49:36;;;;;;;73.82;31.98;;;-4.80;86.30;;;;;;5014696;28;20454;-96
2021/01/21 05:52:03;;;;;;;70.55;31.38;;;-4.80;86.30;;;;;;5016099;28;20076;-95
2021/01/21 05:54:30;;;;;;;69.63;29.00;;;-4.80;86.50;;;;;;5015094;28;20026;-91
2021/01/21 05:57:01;;;;;;;63.03;29.77;;;-4.70;85.90;;;;;;5015204;28;20036;-94
2021/01/21 05:59:28;;;;;;;64.88;30.05;;;-4.70;86.20;;;;;;5015342;28;20026;-95
2021/01/21 06:01:55;;;;;;;85.15;34.50;;;-4.70;86.10;;;;;;5017534;28;20084;-95
2021/01/21 06:04:27;;;;;;;74.70;33.85;;;-4.70;86.60;;;;;;5023476;28;20029;-94
2021/01/21 06:06:54;;;;;;;70.30;32.13;;;-4.60;86.70;;;;;;5016182;28;20060;-89
2021/01/21 06:09:30;;;;;;;68.13;32.03;;;-4.60;86.10;;;;;;5014708;28;20060;-89
2021/01/21 06:12:03;;;;;;;73.05;30.75;;;-4.60;87.00;;;;;;5015567;28;20018;-95
2021/01/21 06:14:29;;;;;;;68.20;30.85;;;-4.50;86.80;;;;;;5012175;28;20044;-96
2021/01/21 06:16:56;;;;;;;76.00;33.40;;;-4.50;86.50;;;;;;5014788;28;20365;-95
2021/01/21 06:19:23;;;;;;;70.57;32.95;;;-4.40;86.80;;;;;;5015165;28;20134;-95
2021/01/21 06:21:56;;;;;;;66.88;30.50;;;-4.50;86.90;;;;;;5031089;28;20037;-95
2021/01/21 06:24:28;;;;;;;68.55;32.15;;;-4.40;86.10;;;;;;5014911;28;20025;-96
2021/01/21 06:26:55;;;;;;;75.13;33.75;;;-4.40;86.60;;;;;;5014459;28;20113;-95
2021/01/21 06:29:25;;;;;;;73.47;32.63;;;-4.40;86.70;;;;;;5014533;28;20022;-95
2021/01/21 06:31:51;;;;;;;67.75;31.95;;;-4.30;86.10;;;;;;5014588;28;20018;-96
2021/01/21 06:34:30;;;;;;;67.18;32.47;;;-4.30;86.90;;;;;;5014305;28;20033;-96
2021/01/21 06:37:03;;;;;;;64.53;28.53;;;-4.40;86.70;;;;;;5014876;28;20084;-94
2021/01/21 06:39:51;;;;;;;74.13;35.33;;;-4.40;86.70;;;;;;5014417;28;20260;-96
2021/01/21 06:42:37;;;;;;;67.43;30.27;;;-4.30;86.70;;;;;;5014450;28;20030;-96
2021/01/21 06:45:07;;;;;;;65.95;30.48;;;-4.30;86.60;;;;;;5014208;28;20026;-95
2021/01/21 06:47:34;;;;;;;66.65;29.15;;;-4.30;86.70;;;;;;5014211;28;20144;-95
2021/01/21 06:50:02;;;;;;;52.67;26.23;;;-4.20;86.50;;;;;;5013941;28;20069;-94
2021/01/21 06:52:38;;;;;;;59.78;28.52;;;-4.30;86.50;;;;;;5013915;28;20451;-94
2021/01/21 06:55:07;;;;;;;66.93;31.63;;;-4.20;86.50;;;;;;5015324;28;20021;-95
2021/01/21 06:57:33;;;;;;;58.65;25.83;;;-4.20;86.70;;;;;;5013545;28;20103;-94
2021/01/21 06:59:59;;;;;;;69.07;32.28;;;-4.20;85.90;;;;;;5030576;28;20061;-95
2021/01/21 07:02:49;;;;;;;59.17;29.13;;;-4.20;86.40;;;;;;5013914;28;20022;-94
2021/01/21 07:05:20;;;;;;;69.95;31.50;;;-4.20;86.50;;;;;;5006583;28;20097;-95
2021/01/21 07:07:55;;;;;;;64.53;29.90;;;-4.30;87.00;;;;;;5013733;28;20053;-92
2021/01/21 07:10:48;;;;;;;65.47;30.55;;;-4.30;87.10;;;;;;5030239;28;20052;-93
2021/01/21 07:13:17;;;;;;;73.88;33.58;;;-4.20;87.30;;;;;;5013828;28;20038;-96
2021/01/21 07:15:59;;;;;;;76.65;32.92;;;-4.30;87.90;;;;;;5013820;28;20083;-93
2021/01/21 07:18:30;;;;;;;71.35;31.70;;;-4.20;87.70;;;;;;5013783;28;20463;-95
2021/01/21 07:20:59;;;;;;;60.50;28.10;;;-4.10;87.70;;;;;;5013760;28;20057;-94
2021/01/21 07:23:48;;;;;;;69.70;33.30;;;-4.00;87.20;;;;;;5030007;28;20080;-96
2021/01/21 07:26:33;;;;;;;82.28;35.47;;;-4.00;87.60;;;;;;5013776;28;20450;-94
2021/01/21 07:28:59;;;;;;;87.70;38.65;;;-4.00;87.40;;;;;;5013677;28;20080;-95
2021/01/21 07:31:25;;;;;;;87.53;39.80;;;-3.90;87.60;;;;;;5030034;28;20022;-94
2021/01/21 07:34:22;;;;;;;117.82;51.17;;;-3.90;87.40;;;;;;5013533;28;20026;-96
2021/01/21 07:37:10;;;;;;;104.15;45.08;;;-3.80;87.60;;;;;;5030354;28;20403;-96
2021/01/21 07:39:49;;;;;;;84.47;36.20;;;-3.80;87.70;;;;;;5029999;28;20026;-95
2021/01/21 07:42:15;;;;;;;90.18;40.35;;;-3.60;87.00;;;;;;5029941;28;20022;-95
2021/01/21 07:44:58;;;;;;;92.78;37.58;;;-3.60;87.20;;;;;;5014217;28;20030;-95
2021/01/21 07:47:35;;;;;;;110.55;44.83;;;-3.60;87.10;;;;;;5013467;28;20045;-93
2021/01/21 07:50:17;;;;;;;102.07;45.25;;;-3.60;87.70;;;;;;5013271;28;20080;-95
2021/01/21 07:52:44;;;;;;;90.75;41.95;;;-3.50;87.30;;;;;;5031369;28;20037;-96
2021/01/21 07:55:11;;;;;;;93.47;41.60;;;-3.60;88.00;;;;;;5014291;28;20112;-95
2021/01/21 07:57:37;;;;;;;91.03;41.50;;;-3.50;88.20;;;;;;5014152;28;20026;-94
2021/01/21 08:00:12;;;;;;;97.60;43.78;;;-3.50;88.50;;;;;;5013452;28;20036;-96
2021/01/21 08:02:44;;;;;;;96.38;41.63;;;-3.50;88.80;;;;;;5013529;28;20041;-96
2021/01/21 08:05:10;;;;;;;86.15;38.50;;;-3.50;89.00;;;;;;5029887;28;20045;-96
2021/01/21 08:07:47;;;;;;;86.65;38.58;;;-3.30;88.40;;;;;;5013022;28;20483;-96
2021/01/21 08:10:15;;;;;;;80.30;35.88;;;-3.30;88.30;;;;;;5015689;28;20096;-96
2021/01/21 08:12:41;;;;;;;73.28;32.78;;;-3.20;88.20;;;;;;5017356;28;20026;-96
2021/01/21 08:15:17;;;;;;;77.95;33.47;;;-3.00;87.70;;;;;;5017388;28;20072;-96
2021/01/21 08:17:43;;;;;;;60.00;27.08;;;-3.00;87.50;;;;;;5016796;28;20026;-94
2021/01/21 08:20:10;;;;;;;73.15;33.90;;;-2.80;86.90;;;;;;5016994;28;20030;-96
2021/01/21 08:22:53;;;;;;;75.50;34.08;;;-2.90;87.20;;;;;;5016964;28;20030;-92
2021/01/21 08:25:19;;;;;;;81.55;36.97;;;-2.90;87.70;;;;;;5016852;28;20041;-94
2021/01/21 08:27:47;;;;;;;81.47;36.45;;;-2.80;87.80;;;;;;5017034;28;20069;-95
2021/01/21 08:30:25;;;;;;;79.05;36.08;;;-2.80;87.90;;;;;;5017462;28;20116;-96
2021/01/21 08:33:03;;;;;;;74.93;34.45;;;-2.60;87.80;;;;;;5017225;28;20070;-96
2021/01/21 08:35:33;;;;;;;78.78;34.55;;;-2.50;87.70;;;;;;5017351;28;20026;-96
2021/01/21 08:37:59;;;;;;;73.55;35.58;;;-2.40;87.20;;;;;;5017119;28;20080;-95
2021/01/21 08:40:26;;;;;;;85.43;37.90;;;-2.60;87.80;;;;;;5017006;28;20030;-96
2021/01/21 08:42:54;;;;;;;78.57;33.67;;;-2.50;87.50;;;;;;5016964;28;20364;-96
2021/01/21 08:45:26;;;;;;;74.78;35.78;;;-2.30;87.20;;;;;;5016605;28;20049;-95
2021/01/21 08:47:52;;;;;;;94.35;43.13;;;-2.20;86.80;;;;;;5016370;28;20030;-96
2021/01/21 08:50:19;;;;;;;85.63;39.28;;;-2.20;86.90;;;;;;5016833;28;20046;-96
2021/01/21 08:53:19;;;;;;;83.75;38.05;;;-2.10;87.20;;;;;;5017443;28;20022;-96
2021/01/21 08:55:46;;;;;;;69.93;35.40;;;-1.80;86.80;;;;;;5006152;28;20034;-95
2021/01/21 08:58:14;;;;;;;58.60;29.77;;;-1.80;86.00;;;;;;5016345;28;20299;-96
2021/01/21 09:00:57;;;;;;;55.38;26.10;;;-1.60;85.50;;;;;;5016310;28;20026;-96
2021/01/21 09:03:53;;;;;;;64.93;29.35;;;-1.60;84.90;;;;;;5032641;28;20430;-96
2021/01/21 09:06:22;;;;;;;52.80;26.85;;;-1.50;84.80;;;;;;5016440;28;20061;-96
2021/01/21 09:08:58;;;;;;;70.80;32.83;;;-1.50;84.90;;;;;;5016400;28;20061;-96
2021/01/21 09:11:40;;;;;;;69.35;33.08;;;-1.60;85.30;;;;;;5015912;28;20076;-96
2021/01/21 09:14:25;;;;;;;55.70;29.55;;;-1.50;85.00;;;;;;5015861;28;20026;-96
2021/01/21 09:16:54;;;;;;;63.38;32.03;;;-1.60;85.50;;;;;;5015866;28;20018;-96
2021/01/21 09:19:25;;;;;;;73.07;34.67;;;-1.60;85.70;;;;;;5016097;28;20029;-96
2021/01/21 09:22:02;;;;;;;80.32;39.00;;;-1.60;85.20;;;;;;5031991;28;20065;-96
2021/01/21 09:24:29;;;;;;;73.47;35.10;;;-1.60;85.70;;;;;;5015958;28;20018;-96
2021/01/21 09:27:16;;;;;;;69.80;33.65;;;-1.60;86.10;;;;;;5015788;28;20045;-96
2021/01/21 09:29:54;;;;;;;71.10;35.22;;;-1.40;85.60;;;;;;5015492;28;20054;-95
2021/01/21 09:32:22;;;;;;;69.90;34.05;;;-1.40;85.30;;;;;;5015720;28;20028;-96
2021/01/21 09:34:52;;;;;;;57.50;29.90;;;-1.40;85.00;;;;;;5015544;28;20026;-95
2021/01/21 09:37:18;;;;;;;63.15;31.70;;;-1.50;85.60;;;;;;5031954;28;20072;-94
2021/01/21 09:39:44;;;;;;;60.10;30.23;;;-1.40;85.40;;;;;;5015393;28;20029;-93
2021/01/21 09:42:10;;;;;;;74.88;38.78;;;-1.30;85.30;;;;;;5015259;28;20030;-95
2021/01/21 09:44:37;;;;;;;68.30;33.97;;;-1.30;85.20;;;;;;5015146;28;20030;-93
2021/01/21 09:47:02;;;;;;;60.65;32.13;;;-1.60;86.10;;;;;;5015450;28;20107;-96
2021/01/21 09:49:28;;;;;;;59.95;29.58;;;-1.60;86.70;;;;;;5014996;28;20058;-95
2021/01/21 09:51:54;;;;;;;67.88;34.85;;;-1.40;86.00;;;;;;5015189;28;20050;-96
2021/01/21 09:54:19;;;;;;;59.85;28.42;;;-1.30;86.20;;;;;;5015138;28;20469;-95
2021/01/21 09:56:46;;;;;;;63.78;31.77;;;-1.40;85.70;;;;;;5015318;28;20026;-96
2021/01/21 09:59:12;;;;;;;67.80;34.42;;;-1.40;85.90;;;;;;5015277;28;20053;-96
2021/01/21 10:01:38;;;;;;;67.32;34.67;;;-1.50;86.10;;;;;;5014999;28;20022;-93
2021/01/21 10:04:03;;;;;;;51.83;26.83;;;-1.50;86.40;;;;;;5015171;28;20029;-94
2021/01/21 10:06:29;;;;;;;62.05;30.25;;;-1.40;85.90;;;;;;5015096;28;20050;-93
2021/01/21 10:08:55;;;;;;;59.70;30.73;;;-1.40;85.50;;;;;;5014870;28;20026;-93
2021/01/21 10:11:20;;;;;;;63.08;30.00;;;-1.40;85.70;;;;;;5014797;28;20018;-93
2021/01/21 10:13:46;;;;;;;78.30;38.80;;;-1.30;85.20;;;;;;5014779;28;20057;-92
2021/01/21 10:16:12;;;;;;;71.03;35.45;;;-1.30;85.00;;;;;;5014736;28;20094;-93
2021/01/21 10:18:37;;;;;;;60.58;30.45;;;-1.20;84.70;;;;;;5014733;28;20380;-93
2021/01/21 10:21:03;;;;;;;70.75;33.72;;;-1.20;84.80;;;;;;5014547;28;20030;-92
2021/01/21 10:23:29;;;;;;;67.70;32.90;;;-1.20;84.80;;;;;;5014572;28;20025;-93
2021/01/21 10:26:32;;;;;;;62.40;29.70;;;-1.20;84.80;;;;;;5014680;28;20049;-94
2021/01/21 10:28:58;;;;;;;58.05;29.63;;;-1.00;84.70;;;;;;4958376;28;20038;-94
2021/01/21 10:31:24;;;;;;;62.72;32.20;;;-1.10;84.80;;;;;;5002306;28;20034;-92
2021/01/21 10:33:50;;;;;;;62.40;32.38;;;-1.10;84.90;;;;;;5014127;28;20030;-92
2021/01/21 10:36:15;;;;;;;63.00;31.60;;;-1.10;85.30;;;;;;5014547;28;20030;-92
2021/01/21 10:38:41;;;;;;;60.90;29.95;;;-1.10;85.20;;;;;;5015735;28;20022;-92
2021/01/21 10:41:08;;;;;;;65.75;32.50;;;-0.90;85.20;;;;;;5014448;28;20474;-93
2021/01/21 10:43:34;;;;;;;67.68;33.13;;;-0.80;84.80;;;;;;5014444;28;20040;-91
2021/01/21 10:46:00;;;;;;;68.07;33.10;;;-0.80;84.60;;;;;;5014190;28;20542;-91
2021/01/21 10:48:26;;;;;;;67.57;32.65;;;-0.80;85.00;;;;;;5014023;28;20120;-91
2021/01/21 10:50:52;;;;;;;70.82;35.17;;;-0.70;84.80;;;;;;5015171;28;20054;-91
2021/01/21 10:53:18;;;;;;;60.60;32.30;;;-0.70;84.70;;;;;;5014705;28;20022;-93
2021/01/21 10:55:43;;;;;;;65.57;32.70;;;-0.60;85.00;;;;;;5014025;28;20367;-91
2021/01/21 10:58:09;;;;;;;68.28;35.25;;;-0.60;84.60;;;;;;5015051;28;20109;-91
2021/01/21 11:00:35;;;;;;;68.68;32.90;;;-0.60;84.90;;;;;;5013886;28;20049;-90
2021/01/21 11:03:01;;;;;;;56.70;27.17;;;-0.60;85.20;;;;;;5014045;28;20049;-91
2021/01/21 11:05:27;;;;;;;57.25;30.73;;;-0.60;85.20;;;;;;5014145;28;20472;-90
2021/01/21 11:07:53;;;;;;;58.08;28.58;;;-0.50;85.00;;;;;;5013777;28;20022;-91
2021/01/21 11:10:18;;;;;;;51.05;27.40;;;-0.40;84.80;;;;;;5014114;28;20018;-91
2021/01/21 11:12:46;;;;;;;59.25;29.42;;;-0.30;84.40;;;;;;5013780;28;20026;-91
2021/01/21 11:15:12;;;;;;;66.88;32.85;;;-0.20;84.30;;;;;;5013640;28;20494;-92
2021/01/21 11:17:38;;;;;;;68.43;33.90;;;-0.20;84.30;;;;;;5013554;28;20029;-91
2021/01/21 11:20:04;;;;;;;71.13;33.42;;;-0.20;84.90;;;;;;5013830;28;20026;-90
2021/01/21 11:22:30;;;;;;;59.22;28.95;;;-0.30;85.10;;;;;;5014754;28;20030;-92
2021/01/21 11:24:56;;;;;;;59.67;29.80;;;-0.10;84.90;;;;;;5014605;28;20030;-91
2021/01/21 11:27:22;;;;;;;71.30;34.90;;;-0.10;84.50;;;;;;5014535;28;20041;-91
2021/01/21 11:29:48;;;;;;;59.05;31.10;;;-0.20;84.70;;;;;;5013228;28;20028;-90
2021/01/21 11:32:13;;;;;;;56.72;29.90;;;-0.20;85.10;;;;;;5014499;28;20022;-90
2021/01/21 11:34:39;;;;;;;56.90;28.30;;;-0.20;84.90;;;;;;5013435;28;20554;-90
2021/01/21 11:37:05;;;;;;;59.28;28.45;;;-0.10;84.70;;;;;;5013342;28;20026;-91
2021/01/21 11:39:30;;;;;;;53.30;26.45;;;0.00;84.30;;;;;;5014702;28;20026;-92
2021/01/21 11:41:56;;;;;;;51.67;26.00;;;0.10;84.00;;;;;;5013446;28;20463;-89
2021/01/21 11:44:22;;;;;;;51.90;27.65;;;0.20;83.50;;;;;;5015638;28;20030;-90
2021/01/21 11:46:47;;;;;;;54.97;27.42;;;0.10;83.60;;;;;;5018569;28;20026;-91
2021/01/21 11:49:13;;;;;;;54.92;29.55;;;0.20;83.80;;;;;;5017116;28;20763;-90
2021/01/21 11:51:39;;;;;;;52.58;27.83;;;0.10;83.50;;;;;;5018471;28;20033;-90
2021/01/21 11:54:05;;;;;;;52.90;24.45;;;0.00;84.10;;;;;;5017129;28;20026;-90
2021/01/21 11:56:31;;;;;;;52.92;28.08;;;0.10;83.70;;;;;;5018617;28;20026;-90
2021/01/21 11:58:57;;;;;;;51.00;26.85;;;-0.10;83.70;;;;;;5017133;28;20144;-90
2021/01/21 12:01:22;;;;;;;55.20;28.50;;;-0.30;84.90;;;;;;5017364;28;20033;-90
2021/01/21 12:03:48;;;;;;;56.70;28.27;;;-0.20;84.70;;;;;;5018401;28;20037;-90
2021/01/21 12:06:14;;;;;;;62.70;31.65;;;-0.30;84.90;;;;;;5017001;28;20037;-90
2021/01/21 12:08:39;;;;;;;62.70;32.13;;;-0.50;85.80;;;;;;5017017;28;20076;-90
2021/01/21 12:11:05;;;;;;;52.83;28.08;;;-0.40;85.60;;;;;;5017020;28;20025;-90
2021/01/21 12:13:31;;;;;;;63.38;31.67;;;-0.50;86.20;;;;;;5016870;28;20022;-90
2021/01/21 12:15:59;;;;;;;58.40;30.25;;;-0.40;86.30;;;;;;5016947;28;20030;-90
2021/01/21 12:18:25;;;;;;;54.13;28.63;;;-0.30;85.90;;;;;;5017113;28;20451;-90
2021/01/21 12:20:51;;;;;;;61.63;30.13;;;-0.20;85.50;;;;;;5016881;28;20499;-90
2021/01/21 12:23:17;;;;;;;46.30;25.23;;;-0.20;85.20;;;;;;5016879;28;20034;-90
2021/01/21 12:25:42;;;;;;;48.53;25.02;;;-0.10;85.10;;;;;;5016537;28;20387;-89
2021/01/21 12:28:08;;;;;;;51.45;27.55;;;-0.10;85.10;;;;;;5017738;28;20025;-90
2021/01/21 12:30:34;;;;;;;53.10;28.50;;;-0.20;84.90;;;;;;5016669;28;20471;-91
2021/01/21 12:32:59;;;;;;;47.13;24.90;;;-0.30;85.40;;;;;;5016799;28;20057;-90
2021/01/21 12:35:25;;;;;;;45.88;23.90;;;-0.30;85.20;;;;;;5018033;28;20375;-90
2021/01/21 12:37:51;;;;;;;46.67;25.92;;;-0.30;84.80;;;;;;5016633;28;20535;-90
2021/01/21 12:40:17;;;;;;;56.40;29.00;;;-0.20;84.90;;;;;;5018059;28;20479;-90
2021/01/21 12:42:42;;;;;;;60.63;32.05;;;-0.30;84.80;;;;;;5016339;28;20091;-90